Time;durP1;ratioP1;P1;durP2;ratioP2;P2;SDS_P1;SDS_P2;PMS_P1;PMS_P2;Temp;Humidity;BMP_temperature;BMP_pressure;BME280_temperature;BME280_humidity;BME280_pressure;Samples;Min_cycle;Max_cycle;Signal;HPM_P1;HPM_P2
2022/02/04 00:20:48;;;;;;;15.38;10.07;;;;;;;6.25;100.00;100212.66;5226970;28;20060;-78
2022/02/04 00:23:32;;;;;;;17.33;9.98;;;;;;;6.25;100.00;100211.81;5225638;28;20700;-79
2022/02/04 00:26:15;;;;;;;14.20;9.60;;;;;;;6.20;100.00;100209.34;5227676;28;20029;-81
2022/02/04 00:31:47;;;;;;;18.27;10.43;;;;;;;6.24;100.00;100217.91;5230550;28;20487;-81
2022/02/04 00:34:20;;;;;;;15.38;10.18;;;;;;;6.28;100.00;100216.94;5223807;28;20033;-80
2022/02/04 00:37:04;;;;;;;15.68;9.82;;;;;;;6.27;100.00;100215.22;5221288;28;20031;-80
2022/02/04 00:39:43;;;;;;;15.73;10.68;;;;;;;6.34;100.00;100217.63;5226962;28;20079;-79
2022/02/04 00:42:14;;;;;;;16.45;10.68;;;;;;;6.31;100.00;100222.03;5224138;28;20024;-78
2022/02/04 00:44:44;;;;;;;15.05;10.05;;;;;;;6.23;100.00;100209.25;5230618;28;20032;-78
2022/02/04 00:47:19;;;;;;;17.83;10.68;;;;;;;6.23;100.00;100218.78;5229843;28;20029;-78
2022/02/04 00:50:05;;;;;;;16.20;10.68;;;;;;;6.25;100.00;100217.00;5227745;28;20478;-78
2022/02/04 00:52:52;;;;;;;16.05;9.90;;;;;;;6.27;100.00;100215.22;5227418;28;20032;-78
2022/02/04 00:55:29;;;;;;;19.48;10.95;;;;;;;6.24;100.00;100207.53;5229291;28;20028;-79
2022/02/04 01:13:07;;;;;;;16.02;11.05;;;;;;;6.30;100.00;100216.03;5225795;28;20418;-79
2022/02/04 01:26:12;;;;;;;21.65;12.45;;;;;;;6.37;100.00;100214.97;5231142;28;20040;-80
2022/02/04 01:28:46;;;;;;;18.98;11.85;;;;;;;6.33;100.00;100225.44;5226649;28;20090;-81
2022/02/04 01:31:19;;;;;;;18.38;12.13;;;;;;;6.38;100.00;100223.59;5232981;28;20043;-80
2022/02/04 01:33:51;;;;;;;17.33;11.57;;;;;;;6.49;100.00;100224.19;5230760;28;20032;-80
2022/02/04 01:36:21;;;;;;;18.52;12.15;;;;;;;6.43;100.00;100220.00;5231774;28;20039;-80
2022/02/04 01:38:52;;;;;;;19.85;11.65;;;;;;;6.36;100.00;100217.59;5232358;28;20036;-79
2022/02/04 01:41:22;;;;;;;20.48;12.32;;;;;;;6.36;100.00;100220.19;5231132;28;20116;-80
2022/02/04 01:43:52;;;;;;;18.63;12.00;;;;;;;6.33;100.00;100220.25;5231950;28;20025;-80
2022/02/04 01:46:23;;;;;;;19.55;12.00;;;;;;;6.28;100.00;100219.53;5231304;28;20498;-81
2022/02/04 01:48:53;;;;;;;18.02;11.65;;;;;;;6.30;100.00;100220.34;5232189;28;20025;-80
2022/02/04 01:51:24;;;;;;;17.95;11.73;;;;;;;6.27;100.00;100228.19;5231881;28;20563;-80
2022/02/04 01:53:54;;;;;;;20.60;12.45;;;;;;;6.35;100.00;100221.94;5231448;28;20267;-80
2022/02/04 01:56:24;;;;;;;17.25;11.45;;;;;;;6.33;100.00;100215.06;5232149;28;20483;-80
2022/02/04 01:58:54;;;;;;;20.40;13.25;;;;;;;6.33;100.00;100220.25;5231199;28;20078;-79
2022/02/04 02:01:25;;;;;;;19.77;13.00;;;;;;;6.33;100.00;100207.28;5231574;28;20037;-79
2022/02/04 02:03:57;;;;;;;20.53;12.50;;;;;;;6.30;100.00;100220.34;5229814;28;20552;-79
2022/02/04 02:06:50;;;;;;;19.90;12.57;;;;;;;6.43;100.00;100216.56;5227495;28;20298;-79
2022/02/04 02:09:25;;;;;;;20.23;11.85;;;;;;;6.34;100.00;100206.38;5228843;28;20143;-79
2022/02/04 02:12:00;;;;;;;;;;;;;;;6.32;100.00;100203.84;5231033;28;20024;-79
2022/02/04 02:14:31;;;;;;;20.38;12.07;;;;;;;6.37;100.00;100206.31;5229387;28;20027;-79
2022/02/04 02:34:39;;;;;;;20.95;13.32;;;;;;;6.22;100.00;100201.53;5228312;28;20040;-78
2022/02/04 02:55:05;;;;;;;21.67;13.43;;;;;;;6.20;100.00;100213.66;5232263;28;20028;-81
2022/02/04 02:58:03;;;;;;;19.02;12.48;;;;;;;6.34;100.00;100212.44;5228731;28;20037;-83
2022/02/04 03:02:57;;;;;;;19.15;12.75;;;;;;;6.30;100.00;100199.59;5230242;28;20382;-80
2022/02/04 03:05:28;;;;;;;18.98;12.73;;;;;;;6.22;100.00;100206.72;5229469;28;20082;-79
2022/02/04 03:07:58;;;;;;;23.80;13.25;;;;;;;6.22;100.00;100191.97;5224770;28;20057;-80
2022/02/04 03:10:28;;;;;;;23.02;14.32;;;;;;;6.18;100.00;100194.69;5230710;28;20035;-79
2022/02/04 03:12:59;;;;;;;19.35;13.05;;;;;;;6.21;100.00;100186.81;5228064;28;20044;-80
2022/02/04 03:15:29;;;;;;;21.98;13.27;;;;;;;6.23;100.00;100198.88;5226949;28;20115;-80
2022/02/04 03:18:11;;;;;;;20.70;13.88;;;;;;;6.23;100.00;100185.06;5229034;28;20024;-78
2022/02/04 03:20:47;;;;;;;20.25;12.93;;;;;;;6.17;100.00;100180.00;5226050;28;20264;-81
2022/02/04 03:23:20;;;;;;;22.08;13.35;;;;;;;6.25;100.00;100172.91;5229273;28;20435;-79
2022/02/04 03:25:57;;;;;;;24.15;13.48;;;;;;;6.21;100.00;100179.91;5230109;28;20029;-79
2022/02/04 03:28:29;;;;;;;21.40;12.60;;;;;;;6.25;100.00;100188.47;5230115;28;20060;-81
2022/02/04 03:31:00;;;;;;;20.23;13.30;;;;;;;6.18;100.00;100181.72;5229288;28;20025;-79
2022/02/04 03:33:32;;;;;;;22.00;13.35;;;;;;;6.25;100.00;100178.94;5230161;28;20067;-79
2022/02/04 03:36:03;;;;;;;21.88;13.40;;;;;;;6.27;100.00;100186.69;5228173;28;20461;-79
2022/02/04 03:38:33;;;;;;;20.42;12.50;;;;;;;6.20;100.00;100178.19;5231445;28;20063;-81
2022/02/04 03:41:06;;;;;;;22.90;13.07;;;;;;;6.28;100.00;100171.06;5231605;28;20036;-80
2022/02/04 03:43:38;;;;;;;21.52;12.98;;;;;;;6.25;100.00;100189.31;5227608;28;20406;-78
2022/02/04 03:46:08;;;;;;;24.77;13.38;;;;;;;6.27;100.00;100184.09;5226530;28;20037;-81
2022/02/04 03:48:38;;;;;;;22.75;11.95;;;;;;;6.27;100.00;100184.09;5223317;28;20037;-83
2022/02/04 03:51:08;;;;;;;19.13;12.10;;;;;;;6.26;100.00;100192.78;5227727;28;20482;-80
2022/02/04 03:53:39;;;;;;;18.63;11.40;;;;;;;6.31;100.00;100185.72;5219333;28;20040;-79
2022/02/04 03:56:10;;;;;;;18.65;12.25;;;;;;;6.28;100.00;100186.63;5231073;28;20607;-81
2022/02/04 03:58:42;;;;;;;19.35;11.68;;;;;;;6.37;100.00;100180.34;5227622;28;20024;-81
2022/02/04 04:01:12;;;;;;;19.65;11.88;;;;;;;6.31;100.00;100183.13;5226789;28;20029;-79
2022/02/04 04:03:43;;;;;;;19.33;11.90;;;;;;;6.33;100.00;100178.75;5231605;28;20386;-80
2022/02/04 04:06:15;;;;;;;18.00;11.63;;;;;;;6.31;100.00;100175.34;5228494;28;20028;-80
2022/02/04 04:08:45;;;;;;;21.02;12.43;;;;;;;6.32;100.00;100174.44;5230153;28;20139;-79
2022/02/04 04:11:16;;;;;;;21.08;12.05;;;;;;;6.32;100.00;100182.22;5227916;28;20025;-79
2022/02/04 04:13:47;;;;;;;20.63;11.55;;;;;;;6.38;100.00;100175.16;5229675;28;20097;-81
2022/02/04 04:16:19;;;;;;;20.45;11.35;;;;;;;6.43;100.00;100177.63;5228115;28;20119;-79
2022/02/04 04:18:50;;;;;;;17.17;11.23;;;;;;;6.41;100.00;100177.66;5229726;28;20043;-80
2022/02/04 04:21:20;;;;;;;18.35;11.30;;;;;;;6.43;100.00;100173.28;5229917;28;20032;-80
2022/02/04 04:23:50;;;;;;;19.60;12.48;;;;;;;6.38;100.00;100174.28;5229038;28;20025;-80
2022/02/04 04:26:20;;;;;;;17.60;11.32;;;;;;;6.40;100.00;100164.75;5229743;28;20044;-80
2022/02/04 04:28:51;;;;;;;19.77;12.10;;;;;;;6.35;100.00;100166.56;5228672;28;20545;-80
2022/02/04 04:31:21;;;;;;;21.45;12.55;;;;;;;6.39;100.00;100171.66;5230284;28;20111;-80
2022/02/04 04:33:51;;;;;;;19.25;12.10;;;;;;;6.44;100.00;100168.97;5228536;28;20118;-80
2022/02/04 04:36:22;;;;;;;22.73;12.88;;;;;;;6.45;100.00;100163.72;5228863;28;20033;-80
2022/02/04 04:39:30;;;;;;;21.08;12.10;;;;;;;6.36;100.00;100170.88;5228576;28;20031;-80
2022/02/04 04:42:11;;;;;;;22.02;12.45;;;;;;;6.28;100.00;100165.88;5224221;28;20032;-80
2022/02/04 04:45:13;;;;;;;22.73;12.63;;;;;;;6.35;100.00;100161.38;5222941;28;20029;-80
2022/02/04 05:26:00;;;;;;;19.67;11.55;;;;;;;6.32;100.00;100161.47;5227373;28;20548;-80
2022/02/04 05:30:11;;;;;;;19.70;10.75;;;;;;;6.26;100.00;100156.44;5224328;28;20114;-84
2022/02/04 05:32:42;;;;;;;17.20;9.85;;;;;;;6.29;100.00;100140.78;5232881;28;20020;-80
2022/02/04 05:35:13;;;;;;;18.42;10.68;;;;;;;6.35;100.00;100140.63;5229283;28;20461;-79
2022/02/04 05:37:46;;;;;;;19.40;11.23;;;;;;;6.29;100.00;100141.63;5233471;28;20127;-78
2022/02/04 05:40:20;;;;;;;19.35;11.02;;;;;;;6.19;100.00;100142.78;5231537;28;20037;-79
2022/02/04 05:42:57;;;;;;;20.10;11.80;;;;;;;6.19;100.00;100136.72;5231405;28;20029;-78
2022/02/04 05:45:32;;;;;;;19.13;12.07;;;;;;;6.18;100.00;100133.28;5230100;28;20063;-79
2022/02/04 05:48:05;;;;;;;19.10;12.57;;;;;;;6.27;100.00;100127.00;5224155;28;20051;-79
2022/02/04 05:50:56;;;;;;;19.08;12.38;;;;;;;6.22;100.00;100114.16;5233636;28;20027;-79
2022/02/04 05:53:33;;;;;;;21.08;12.52;;;;;;;6.31;100.00;100132.09;5230503;28;20040;-80
2022/02/04 05:56:27;;;;;;;18.13;12.07;;;;;;;6.40;100.00;100123.22;5229685;28;20028;-81
2022/02/04 06:01:40;;;;;;;21.17;10.95;;;;;;;6.34;100.00;100118.16;5229851;28;20521;-79
2022/02/04 06:23:21;;;;;;;15.27;9.10;;;;;;;6.35;100.00;100109.50;5228698;28;20060;-82
2022/02/04 06:25:51;;;;;;;16.20;9.52;;;;;;;6.28;100.00;100108.78;5232497;28;20451;-81
2022/02/04 06:28:22;;;;;;;14.63;9.38;;;;;;;6.41;100.00;100111.94;5231492;28;20537;-80
2022/02/04 06:30:52;;;;;;;15.00;9.35;;;;;;;6.44;100.00;100111.84;5230964;28;20055;-81
2022/02/04 06:33:22;;;;;;;13.98;8.80;;;;;;;6.39;100.00;100111.13;5231257;28;20024;-81
2022/02/04 06:35:53;;;;;;;15.77;9.43;;;;;;;6.37;100.00;100105.97;5221994;28;20485;-82
2022/02/04 06:38:23;;;;;;;15.23;8.68;;;;;;;6.45;100.00;100113.56;5220819;28;20047;-82
2022/02/04 06:40:54;;;;;;;17.17;10.00;;;;;;;6.42;100.00;100116.25;5231229;28;20036;-82
2022/02/04 06:43:24;;;;;;;14.63;9.30;;;;;;;6.44;100.00;100109.25;5230319;28;20081;-81
2022/02/04 06:45:55;;;;;;;14.63;8.60;;;;;;;6.41;100.00;100114.53;5226987;28;20028;-80
2022/02/04 06:48:25;;;;;;;13.95;8.73;;;;;;;6.41;100.00;100120.56;5228713;28;20056;-80
2022/02/04 06:50:56;;;;;;;13.65;8.68;;;;;;;6.50;100.00;100122.06;5231768;28;20103;-84
2022/02/04 06:53:26;;;;;;;14.00;8.52;;;;;;;6.51;100.00;100123.78;5232572;28;20064;-84
2022/02/04 06:55:56;;;;;;;13.98;8.52;;;;;;;6.47;100.00;100119.56;5231459;28;20029;-84
2022/02/04 06:58:26;;;;;;;13.73;8.43;;;;;;;6.54;100.00;100115.91;5232722;28;20056;-82
2022/02/04 07:00:57;;;;;;;12.70;7.80;;;;;;;6.55;100.00;100115.00;5231598;28;20086;-82
2022/02/04 07:03:27;;;;;;;12.05;8.02;;;;;;;6.56;100.00;100119.34;5232398;28;20434;-82
2022/02/04 07:05:59;;;;;;;14.93;7.70;;;;;;;6.49;100.00;100107.38;5231029;28;20024;-81
2022/02/04 07:08:38;;;;;;;13.38;7.75;;;;;;;6.55;100.00;100104.63;5226122;28;20386;-81
2022/02/04 07:14:06;;;;;;;11.40;6.65;;;;;;;6.56;100.00;100109.78;5233868;28;20039;-83
2022/02/04 07:16:56;;;;;;;11.20;6.60;;;;;;;6.66;100.00;100102.59;5225101;28;20417;-82
2022/02/04 07:19:46;;;;;;;9.80;6.20;;;;;;;6.64;100.00;100101.78;5230232;28;20036;-81
2022/02/04 07:22:18;;;;;;;9.27;6.15;;;;;;;6.62;100.00;100106.19;5227106;28;20043;-80
2022/02/04 07:24:51;;;;;;;10.30;6.20;;;;;;;6.54;100.00;100106.38;5231288;28;20040;-82
2022/02/04 07:27:24;;;;;;;9.07;5.88;;;;;;;6.59;100.00;100096.72;5230031;28;20036;-81
2022/02/04 07:29:55;;;;;;;10.57;6.07;;;;;;;6.66;100.00;100092.22;5233635;28;20105;-83
2022/02/04 07:32:35;;;;;;;9.65;5.85;;;;;;;6.79;100.00;100106.56;5231488;28;20032;-80
2022/02/04 07:35:35;;;;;;;9.30;5.90;;;;;;;6.74;100.00;100098.06;5229926;28;20052;-82
2022/02/04 07:41:01;;;;;;;8.35;5.15;;;;;;;6.81;100.00;100089.19;5225382;28;20052;-82
2022/02/04 07:43:32;;;;;;;8.75;5.60;;;;;;;6.77;100.00;100098.81;5229877;28;20056;-81
2022/02/04 07:46:03;;;;;;;10.00;5.88;;;;;;;6.88;100.00;100101.09;5228572;28;20060;-82
2022/02/04 07:48:33;;;;;;;8.65;5.50;;;;;;;6.78;100.00;100097.91;5221514;28;20092;-82
2022/02/04 07:51:03;;;;;;;9.75;5.85;;;;;;;6.86;100.00;100092.50;5231722;28;20115;-82
2022/02/04 07:53:35;;;;;;;7.88;5.45;;;;;;;6.83;100.00;100093.47;5229051;28;20025;-80
2022/02/04 07:56:05;;;;;;;9.65;6.20;;;;;;;7.01;100.00;100081.69;5229406;28;20151;-83
2022/02/04 07:58:36;;;;;;;8.32;5.53;;;;;;;7.07;100.00;100077.16;5232316;28;20131;-80
2022/02/04 08:01:06;;;;;;;8.52;5.60;;;;;;;6.97;100.00;100095.66;5228804;28;20039;-82
2022/02/04 08:03:43;;;;;;;9.95;5.95;;;;;;;6.95;100.00;100097.44;5233017;28;20225;-81
2022/02/04 08:06:20;;;;;;;9.27;5.65;;;;;;;6.97;100.00;100086.09;5225915;28;20036;-85
2022/02/04 08:14:15;;;;;;;10.60;6.55;;;;;;;7.03;100.00;100085.06;5232696;28;20036;-80
2022/02/04 08:27:28;;;;;;;8.02;5.28;;;;;;;7.13;100.00;100076.13;5228684;28;20475;-83
2022/02/04 08:33:07;;;;;;;9.10;5.88;;;;;;;7.34;100.00;100073.75;5231920;28;20098;-85
2022/02/04 08:38:51;;;;;;;8.60;5.57;;;;;;;7.33;100.00;100069.44;5229295;28;20048;-85
2022/02/04 08:47:24;;;;;;;7.75;4.75;;;;;;;7.35;100.00;100063.28;5220291;28;20036;-83
2022/02/04 08:53:36;;;;;;;7.22;4.60;;;;;;;7.61;100.00;100046.88;5173665;28;20116;-81
2022/02/04 08:56:00;;;;;;;7.47;4.75;;;;;;;7.85;100.00;100033.91;5228300;28;20398;-84
2022/02/04 08:58:35;;;;;;;6.55;4.10;;;;;;;7.88;100.00;100043.38;5227820;28;20029;-80
2022/02/04 09:01:21;;;;;;;7.13;4.40;;;;;;;7.92;100.00;100044.97;5230163;28;20756;-80
2022/02/04 09:04:03;;;;;;;7.50;4.93;;;;;;;7.97;100.00;100030.91;5224472;28;20029;-80
2022/02/04 09:06:39;;;;;;;7.18;4.70;;;;;;;7.96;100.00;100042.22;5219651;28;20044;-81
2022/02/04 09:09:15;;;;;;;6.22;4.20;;;;;;;7.88;100.00;100043.38;5227197;28;20021;-80
2022/02/04 09:11:48;;;;;;;5.97;4.05;;;;;;;7.91;100.00;100044.09;5229147;28;20141;-82
2022/02/04 09:17:59;;;;;;;7.60;4.18;;;;;;;7.92;100.00;100053.63;5219103;28;20505;-82
2022/02/04 09:20:29;;;;;;;6.18;3.80;;;;;;;7.81;100.00;100037.53;5217840;28;20060;-80
2022/02/04 09:23:00;;;;;;;6.22;4.10;;;;;;;7.80;100.00;100035.81;5217622;28;20122;-83
2022/02/04 09:25:30;;;;;;;7.10;4.00;;;;;;;7.82;100.00;100033.16;5233828;28;20040;-84
2022/02/04 09:28:00;;;;;;;5.57;3.67;;;;;;;7.77;100.00;100033.34;5227837;28;20028;-83
2022/02/04 09:30:31;;;;;;;6.38;4.07;;;;;;;7.82;100.00;100034.03;5218836;28;20029;-80
2022/02/04 09:33:01;;;;;;;6.40;3.75;;;;;;;7.92;100.00;100030.22;5218088;28;20075;-80
2022/02/04 09:35:32;;;;;;;6.43;4.18;;;;;;;7.82;100.00;100034.03;5219228;28;20122;-80
2022/02/04 09:38:02;;;;;;;6.78;4.13;;;;;;;7.85;100.00;100022.69;5218790;28;20082;-82
2022/02/04 09:40:33;;;;;;;7.88;3.95;;;;;;;7.84;100.00;100028.78;5233433;28;20119;-81
2022/02/04 09:43:05;;;;;;;5.97;3.78;;;;;;;8.03;100.00;100022.06;5226962;28;20031;-79
2022/02/04 09:45:37;;;;;;;5.65;3.75;;;;;;;8.11;100.00;100020.03;5222052;28;20033;-79
2022/02/04 09:48:10;;;;;;;6.40;3.60;;;;;;;8.10;100.00;100014.00;5222388;28;20807;-82
2022/02/04 09:50:46;;;;;;;4.28;3.15;;;;;;;8.22;100.00;100012.75;5222439;28;20475;-81
2022/02/04 10:07:58;;;;;;;5.03;3.10;;;;;;;8.32;100.00;100001.94;5222077;28;20048;-80
2022/02/04 10:19:04;;;;;;;5.22;3.33;;;;;;;8.35;100.00;99993.19;5223960;28;20604;-82
2022/02/04 10:21:09;;;;;;;4.78;3.50;;;;;;;8.28;100.00;99994.28;5219453;28;20376;-82
2022/02/04 10:23:48;;;;;;;5.10;3.30;;;;;;;8.34;100.00;99987.13;5234374;28;20063;-80
2022/02/04 10:26:20;;;;;;;5.38;3.60;;;;;;;8.31;100.00;99978.56;5230184;28;20098;-81
2022/02/04 10:28:51;;;;;;;6.03;3.80;;;;;;;8.38;100.00;99988.69;5222197;28;20398;-83
2022/02/04 10:31:25;;;;;;;5.15;3.60;;;;;;;8.37;100.00;99978.34;5223608;28;20055;-82
2022/02/04 10:34:09;;;;;;;5.07;3.60;;;;;;;8.51;100.00;99978.69;5229064;28;20592;-84
2022/02/04 10:37:06;;;;;;;7.10;3.75;;;;;;;8.32;100.00;99973.31;5222660;28;20102;-81
2022/02/04 11:04:09;;;;;;;6.35;3.50;;;;;;;8.68;100.00;99925.06;5229578;28;20029;-82
2022/02/04 11:09:44;;;;;;;4.88;3.42;;;;;;;8.66;100.00;99926.88;5222193;28;20036;-83
2022/02/04 11:47:53;;;;;;;3.20;2.00;;;;;;;8.95;100.00;99858.00;5232808;28;20093;-79
2022/02/04 11:52:36;;;;;;;3.40;1.88;;;;;;;9.03;100.00;99846.34;5230073;28;20028;-82
2022/02/04 11:55:09;;;;;;;4.07;1.90;;;;;;;9.17;100.00;99836.22;5233307;28;20028;-82
2022/02/04 11:57:50;;;;;;;2.30;1.42;;;;;;;9.36;100.00;99821.50;5223754;28;20585;-80
2022/02/04 12:00:25;;;;;;;2.78;1.80;;;;;;;9.54;99.71;99818.09;5231585;28;20063;-80
2022/02/04 12:02:56;;;;;;;2.63;1.67;;;;;;;9.73;98.82;99814.63;5231917;28;20567;-80
2022/02/04 12:05:28;;;;;;;2.38;1.48;;;;;;;9.93;98.85;99805.88;5230939;28;20115;-80
2022/02/04 12:07:58;;;;;;;2.83;1.50;;;;;;;9.92;97.47;99797.22;5228218;28;20541;-80
2022/02/04 12:10:31;;;;;;;2.92;1.50;;;;;;;9.66;96.54;99799.31;5229807;28;20032;-80
2022/02/04 12:13:08;;;;;;;3.03;1.52;;;;;;;9.89;95.73;99796.50;5222784;28;20368;-83
2022/02/04 12:15:43;;;;;;;2.75;1.30;;;;;;;9.59;96.79;99790.91;5225076;28;20079;-79
2022/02/04 12:18:15;;;;;;;3.70;1.20;;;;;;;9.69;96.89;99788.72;5223452;28;20029;-80
2022/02/04 12:20:50;;;;;;;2.08;1.10;;;;;;;9.72;96.74;99783.38;5228802;28;20106;-79
2022/02/04 12:23:29;;;;;;;1.88;1.10;;;;;;;9.69;95.93;99780.91;5228870;28;20074;-79
2022/02/04 12:26:04;;;;;;;1.70;1.13;;;;;;;9.70;94.90;99775.63;5229705;28;20568;-79
2022/02/04 12:28:42;;;;;;;1.60;0.90;;;;;;;9.63;95.77;99782.00;5227266;28;20068;-80
2022/02/04 12:31:20;;;;;;;2.08;1.30;;;;;;;9.30;96.36;99772.22;5223124;28;20109;-79
2022/02/04 12:33:59;;;;;;;1.83;0.88;;;;;;;9.33;97.24;99767.72;5228525;28;20107;-79
2022/02/04 12:36:32;;;;;;;1.08;0.77;;;;;;;9.13;98.92;99785.97;5228316;28;20032;-81
2022/02/04 12:39:14;;;;;;;2.05;0.90;;;;;;;9.15;100.00;99788.53;5230006;28;20024;-81
2022/02/04 12:41:47;;;;;;;1.35;0.90;;;;;;;9.02;100.00;99789.94;5228875;28;20031;-81
2022/02/04 12:44:22;;;;;;;1.45;0.90;;;;;;;9.15;100.00;99785.91;5234479;28;20032;-81
2022/02/04 12:47:01;;;;;;;1.23;0.77;;;;;;;8.89;100.00;99790.53;5224608;28;20104;-80
2022/02/04 12:49:33;;;;;;;0.85;0.70;;;;;;;8.68;100.00;99774.00;5231550;28;20037;-81
2022/02/04 12:52:41;;;;;;;1.20;0.63;;;;;;;8.66;100.00;99775.81;5234794;28;20028;-81
2022/02/04 12:55:08;;;;;;;1.20;0.80;;;;;;;8.78;100.00;99766.66;5228276;28;20051;-80
2022/02/04 12:57:55;;;;;;;1.13;0.73;;;;;;;8.73;100.00;99760.81;5226750;28;20029;-79
2022/02/04 13:03:29;;;;;;;1.75;0.57;;;;;;;8.92;100.00;99736.50;5227519;28;20079;-79
2022/02/04 13:09:11;;;;;;;0.75;0.50;;;;;;;9.05;100.00;99729.03;5225650;28;20064;-81
2022/02/04 13:11:38;;;;;;;0.90;0.57;;;;;;;9.10;100.00;99735.72;5231222;28;20683;-81
2022/02/04 13:14:08;;;;;;;1.17;0.70;;;;;;;9.22;100.00;99729.97;5227598;28;20036;-79
2022/02/04 13:16:39;;;;;;;1.27;0.55;;;;;;;9.27;100.00;99705.41;5236829;28;20025;-79
2022/02/04 13:19:09;;;;;;;1.67;0.50;;;;;;;9.43;100.00;99708.16;5237618;28;20472;-79
2022/02/04 13:21:40;;;;;;;0.60;0.50;;;;;;;9.32;100.00;99718.25;5235931;28;20082;-81
2022/02/04 13:24:10;;;;;;;0.88;0.60;;;;;;;9.32;100.00;99711.25;5238343;28;20024;-80
2022/02/04 13:26:40;;;;;;;1.23;0.52;;;;;;;9.29;100.00;99721.00;5234323;28;20095;-81
2022/02/04 13:29:10;;;;;;;0.88;0.65;;;;;;;9.40;100.00;99706.56;5239313;28;20040;-81
2022/02/04 13:31:42;;;;;;;1.27;0.50;;;;;;;9.50;100.00;99704.41;5235322;28;20461;-81
2022/02/04 13:34:13;;;;;;;2.33;0.38;;;;;;;9.46;100.00;99697.63;5238962;28;20029;-80
2022/02/04 13:36:48;;;;;;;1.00;0.50;;;;;;;9.39;100.00;99698.81;5237230;28;20059;-79
2022/02/04 13:44:53;;;;;;;0.40;0.40;;;;;;;9.01;100.00;99694.44;5232624;28;20036;-80
2022/02/04 13:47:51;;;;;;;1.20;0.60;;;;;;;8.91;100.00;99700.09;5221405;28;20107;-79
2022/02/04 13:50:33;;;;;;;1.20;0.57;;;;;;;8.85;100.00;99687.31;5227767;28;20033;-79
2022/02/04 14:01:34;;;;;;;1.85;0.60;;;;;;;9.12;100.00;99652.25;5196813;28;20044;-79
2022/02/04 14:04:06;;;;;;;0.50;0.40;;;;;;;9.00;100.00;99656.25;5229502;28;20036;-79
2022/02/04 14:06:37;;;;;;;1.05;0.70;;;;;;;8.94;100.00;99640.03;5232655;28;20024;-84
2022/02/04 14:09:14;;;;;;;1.67;0.80;;;;;;;8.85;100.00;99649.09;5230073;28;20496;-80
2022/02/04 14:11:44;;;;;;;1.60;0.90;;;;;;;8.89;100.00;99647.22;5218485;28;20106;-82
2022/02/04 14:14:25;;;;;;;1.23;0.70;;;;;;;8.91;100.00;99630.59;5228351;28;20033;-81
2022/02/04 14:17:01;;;;;;;1.60;0.88;;;;;;;8.89;100.00;99642.00;5225138;28;20032;-81
2022/02/04 14:19:31;;;;;;;0.88;0.60;;;;;;;8.95;100.00;99628.72;5231470;28;20024;-82
2022/02/04 14:22:02;;;;;;;1.20;0.57;;;;;;;8.79;100.00;99638.97;5236527;28;20032;-81
2022/02/04 14:24:32;;;;;;;0.95;0.50;;;;;;;8.77;100.00;99632.13;5225382;28;20044;-80
2022/02/04 14:27:04;;;;;;;2.00;0.55;;;;;;;8.84;100.00;99626.56;5228224;28;20036;-81
2022/02/04 14:29:45;;;;;;;1.30;0.60;;;;;;;8.74;100.00;99612.25;5229101;28;20044;-81
2022/02/04 14:32:24;;;;;;;1.20;0.68;;;;;;;8.65;100.00;99617.88;5219158;28;20037;-79
2022/02/04 14:51:58;;;;;;;1.30;0.73;;;;;;;8.14;100.00;99583.59;5229520;28;20036;-81
2022/02/04 14:54:48;;;;;;;1.60;0.95;;;;;;;8.16;100.00;99581.78;5225382;28;20067;-80
2022/02/04 15:02:46;;;;;;;1.80;1.00;;;;;;;8.04;100.00;99581.44;5226062;28;20040;-80
2022/02/04 15:05:20;;;;;;;2.00;0.90;;;;;;;8.07;100.00;99576.09;5225056;28;20036;-80
2022/02/04 15:07:59;;;;;;;2.10;0.83;;;;;;;8.11;100.00;99583.72;5223589;28;20039;-80
2022/02/04 15:10:32;;;;;;;2.88;1.35;;;;;;;8.04;100.00;99573.63;5225477;28;20031;-80
2022/02/04 15:13:02;;;;;;;2.13;1.00;;;;;;;8.03;100.00;99569.34;5226736;28;20056;-80
2022/02/04 15:15:32;;;;;;;1.45;0.80;;;;;;;8.05;100.00;99568.34;5225584;28;20536;-81
2022/02/04 15:18:03;;;;;;;2.72;1.02;;;;;;;8.01;100.00;99566.78;5220357;28;20028;-79
2022/02/04 15:20:33;;;;;;;1.50;0.90;;;;;;;8.04;100.00;99577.06;5229257;28;20031;-80
2022/02/04 15:23:04;;;;;;;6.10;2.88;;;;;;;8.01;100.00;99569.41;5228270;28;20033;-80
2022/02/04 15:25:34;;;;;;;1.52;1.00;;;;;;;8.01;100.00;99569.41;5230606;28;20431;-79
2022/02/04 15:30:42;;;;;;;1.88;1.27;;;;;;;7.97;100.00;99557.44;5232941;28;20023;-81
2022/02/04 15:33:12;;;;;;;1.75;1.00;;;;;;;7.99;100.00;99545.19;5226598;28;20119;-80
2022/02/04 15:35:43;;;;;;;1.98;0.80;;;;;;;7.96;100.00;99547.06;5224482;28;20154;-80
2022/02/04 15:38:13;;;;;;;1.23;0.60;;;;;;;7.95;100.00;99534.97;5223211;28;20020;-81
2022/02/04 15:40:46;;;;;;;1.17;0.60;;;;;;;7.96;100.00;99536.66;5233168;28;20033;-81
2022/02/04 15:43:16;;;;;;;1.40;1.00;;;;;;;7.85;100.00;99537.13;5232039;28;20446;-81
2022/02/04 15:48:25;;;;;;;1.60;0.88;;;;;;;7.86;100.00;99533.59;5222821;28;20174;-81
2022/02/04 15:56:32;;;;;;;1.75;0.80;;;;;;;7.85;100.00;99508.50;5198972;28;20045;-80
2022/02/04 15:59:28;;;;;;;1.27;0.77;;;;;;;7.75;100.00;99516.75;5222562;28;20029;-80
2022/02/04 16:02:27;;;;;;;;;;;;;;;7.81;100.00;99506.94;5231455;28;20560;-82
2022/02/04 16:04:53;;;;;;;2.17;0.88;;;;;;;7.71;100.00;99499.59;5218070;28;19917;-79
2022/02/04 16:07:25;;;;;;;1.67;1.00;;;;;;;7.65;100.00;99498.09;5226673;28;20052;-81
2022/02/04 16:10:06;;;;;;;2.13;1.10;;;;;;;7.59;100.00;99503.56;5224693;28;20025;-81
2022/02/04 16:12:50;;;;;;;1.35;0.80;;;;;;;7.63;100.00;99479.13;5227348;28;20054;-80
2022/02/04 16:18:10;;;;;;;1.67;0.90;;;;;;;7.61;100.00;99472.28;5227494;28;20166;-81
2022/02/04 16:23:55;;;;;;;1.60;0.80;;;;;;;7.43;100.00;99468.69;5223227;28;20050;-79
2022/02/04 16:28:59;;;;;;;0.93;0.60;;;;;;;7.43;100.00;99458.28;5224314;28;20056;-78
2022/02/04 16:31:29;;;;;;;1.83;0.90;;;;;;;7.47;100.00;99464.19;5224409;28;20025;-78
2022/02/04 16:34:00;;;;;;;1.23;0.60;;;;;;;7.41;100.00;99474.84;5225092;28;20109;-80
2022/02/04 16:36:32;;;;;;;1.35;0.70;;;;;;;7.48;100.00;99465.88;5221580;28;20060;-80
2022/02/04 16:39:03;;;;;;;1.40;0.80;;;;;;;7.56;100.00;99469.03;5222847;28;20417;-80
2022/02/04 16:41:48;;;;;;;2.08;0.82;;;;;;;7.55;100.00;99462.97;5228004;28;20475;-80
2022/02/04 16:44:19;;;;;;;1.00;0.80;;;;;;;7.57;100.00;99444.72;5220941;28;20037;-80
2022/02/04 16:46:49;;;;;;;1.35;0.70;;;;;;;7.46;100.00;99447.78;5227498;28;20035;-80
2022/02/04 16:49:19;;;;;;;1.83;1.10;;;;;;;7.46;100.00;99446.91;5226226;28;20522;-80
2022/02/04 16:51:50;;;;;;;1.83;0.90;;;;;;;7.45;100.00;99456.47;5222831;28;20032;-80
2022/02/04 16:54:23;;;;;;;2.72;1.00;;;;;;;7.53;100.00;99450.97;5232488;28;20040;-80
2022/02/04 16:56:55;;;;;;;1.90;0.80;;;;;;;7.50;100.00;99438.09;5224175;28;20036;-79
2022/02/04 16:59:25;;;;;;;1.90;0.90;;;;;;;7.43;100.00;99436.63;5222865;28;20078;-82
2022/02/04 17:01:57;;;;;;;1.92;1.00;;;;;;;7.50;100.00;99433.72;5222862;28;20029;-82
2022/02/04 17:04:27;;;;;;;1.65;0.90;;;;;;;7.53;100.00;99436.19;5222701;28;20098;-82
2022/02/04 17:07:02;;;;;;;1.80;0.80;;;;;;;7.47;100.00;99433.84;5224522;28;20036;-79
2022/02/04 17:09:37;;;;;;;2.45;1.00;;;;;;;7.49;100.00;99437.25;5222255;28;20097;-80
2022/02/04 17:12:10;;;;;;;1.25;0.80;;;;;;;7.42;100.00;99435.81;5220445;28;20032;-80
2022/02/04 17:14:41;;;;;;;1.42;0.85;;;;;;;7.43;100.00;99437.50;5223169;28;20215;-80
2022/02/04 17:17:11;;;;;;;1.77;0.80;;;;;;;7.46;100.00;99426.97;5228869;28;20708;-80
2022/02/04 17:19:52;;;;;;;1.27;0.75;;;;;;;7.51;100.00;99425.03;5227329;28;20421;-80
2022/02/04 17:22:24;;;;;;;1.10;0.73;;;;;;;7.47;100.00;99418.25;5217612;28;20167;-80
2022/02/04 17:24:54;;;;;;;1.20;0.80;;;;;;;7.47;100.00;99413.06;5219698;28;21214;-80
2022/02/04 17:27:24;;;;;;;1.75;0.70;;;;;;;7.55;100.00;99403.19;5234292;28;20036;-80
2022/02/04 17:29:55;;;;;;;1.60;0.88;;;;;;;7.59;100.00;99402.16;5219874;28;20025;-82
2022/02/04 17:32:26;;;;;;;1.90;1.10;;;;;;;7.46;100.00;99390.59;5226792;28;20031;-82
2022/02/04 17:34:57;;;;;;;0.77;0.60;;;;;;;7.55;100.00;99397.16;5226388;28;20474;-82